sensor_id;sensor_type;location;lat;lon;timestamp;P1;durP1;ratioP1;P2;durP2;ratioP2
36303;SDS011;22335;49.800;8.596;2022-12-10T00:02:54;25.75;;;22.10;;
36303;SDS011;22335;49.800;8.596;2022-12-10T00:09:40;30.58;;;22.77;;
36303;SDS011;22335;49.800;8.596;2022-12-10T00:16:28;26.77;;;22.60;;
36303;SDS011;22335;49.800;8.596;2022-12-10T00:23:14;26.00;;;21.88;;
36303;SDS011;22335;49.800;8.596;2022-12-10T00:30:04;25.20;;;21.65;;
36303;SDS011;22335;49.800;8.596;2022-12-10T00:36:54;29.30;;;23.17;;
36303;SDS011;22335;49.800;8.596;2022-12-10T00:43:39;28.50;;;22.70;;
36303;SDS011;22335;49.800;8.596;2022-12-10T00:50:26;26.63;;;22.98;;
36303;SDS011;22335;49.800;8.596;2022-12-10T00:57:14;29.58;;;23.33;;
36303;SDS011;22335;49.800;8.596;2022-12-10T01:04:01;28.27;;;23.08;;
36303;SDS011;22335;49.800;8.596;2022-12-10T01:10:52;30.88;;;22.95;;
36303;SDS011;22335;49.800;8.596;2022-12-10T01:17:40;28.60;;;23.55;;
36303;SDS011;22335;49.800;8.596;2022-12-10T01:24:28;30.55;;;23.77;;
36303;SDS011;22335;49.800;8.596;2022-12-10T01:31:14;31.30;;;23.63;;
36303;SDS011;22335;49.800;8.596;2022-12-10T01:38:05;29.70;;;23.55;;
36303;SDS011;22335;49.800;8.596;2022-12-10T01:44:56;30.35;;;24.35;;
36303;SDS011;22335;49.800;8.596;2022-12-10T01:51:50;26.42;;;23.48;;
36303;SDS011;22335;49.800;8.596;2022-12-10T01:58:45;30.13;;;24.40;;
36303;SDS011;22335;49.800;8.596;2022-12-10T02:05:34;29.63;;;24.48;;
36303;SDS011;22335;49.800;8.596;2022-12-10T02:12:28;28.75;;;23.48;;
36303;SDS011;22335;49.800;8.596;2022-12-10T02:19:25;33.08;;;25.60;;
36303;SDS011;22335;49.800;8.596;2022-12-10T02:26:30;31.38;;;24.95;;
36303;SDS011;22335;49.800;8.596;2022-12-10T02:33:25;29.52;;;23.77;;
36303;SDS011;22335;49.800;8.596;2022-12-10T02:40:15;29.90;;;25.10;;
36303;SDS011;22335;49.800;8.596;2022-12-10T02:47:08;30.02;;;24.33;;
36303;SDS011;22335;49.800;8.596;2022-12-10T02:54:02;28.40;;;23.10;;
36303;SDS011;22335;49.800;8.596;2022-12-10T03:00:53;29.77;;;24.63;;
36303;SDS011;22335;49.800;8.596;2022-12-10T03:08:03;32.08;;;23.98;;
36303;SDS011;22335;49.800;8.596;2022-12-10T03:14:58;29.70;;;23.40;;
36303;SDS011;22335;49.800;8.596;2022-12-10T03:21:49;27.23;;;23.10;;
36303;SDS011;22335;49.800;8.596;2022-12-10T03:28:40;25.95;;;22.50;;
36303;SDS011;22335;49.800;8.596;2022-12-10T03:35:32;30.42;;;23.55;;
36303;SDS011;22335;49.800;8.596;2022-12-10T03:42:18;30.20;;;22.33;;
36303;SDS011;22335;49.800;8.596;2022-12-10T04:02:28;25.73;;;21.95;;
36303;SDS011;22335;49.800;8.596;2022-12-10T04:09:14;25.23;;;21.65;;
36303;SDS011;22335;49.800;8.596;2022-12-10T04:16:01;26.85;;;23.38;;
36303;SDS011;22335;49.800;8.596;2022-12-10T04:23:01;26.45;;;22.33;;
36303;SDS011;22335;49.800;8.596;2022-12-10T04:29:59;27.15;;;22.75;;
36303;SDS011;22335;49.800;8.596;2022-12-10T04:36:45;25.17;;;21.95;;
36303;SDS011;22335;49.800;8.596;2022-12-10T04:43:34;26.87;;;22.70;;
36303;SDS011;22335;49.800;8.596;2022-12-10T04:50:19;28.02;;;23.25;;
36303;SDS011;22335;49.800;8.596;2022-12-10T04:57:05;27.88;;;23.85;;
36303;SDS011;22335;49.800;8.596;2022-12-10T05:03:54;25.30;;;22.00;;
36303;SDS011;22335;49.800;8.596;2022-12-10T05:10:42;27.73;;;22.80;;
36303;SDS011;22335;49.800;8.596;2022-12-10T05:17:28;27.33;;;22.33;;
36303;SDS011;22335;49.800;8.596;2022-12-10T05:24:16;25.45;;;21.35;;
36303;SDS011;22335;49.800;8.596;2022-12-10T05:31:03;26.10;;;21.33;;
36303;SDS011;22335;49.800;8.596;2022-12-10T05:37:49;22.38;;;19.50;;
36303;SDS011;22335;49.800;8.596;2022-12-10T05:44:37;23.70;;;19.35;;
36303;SDS011;22335;49.800;8.596;2022-12-10T05:51:24;23.52;;;20.13;;
36303;SDS011;22335;49.800;8.596;2022-12-10T05:58:13;23.05;;;19.85;;
36303;SDS011;22335;49.800;8.596;2022-12-10T06:05:01;22.45;;;20.05;;
36303;SDS011;22335;49.800;8.596;2022-12-10T06:11:47;26.08;;;22.25;;
36303;SDS011;22335;49.800;8.596;2022-12-10T06:18:32;23.08;;;19.58;;
36303;SDS011;22335;49.800;8.596;2022-12-10T06:25:20;21.70;;;19.40;;
36303;SDS011;22335;49.800;8.596;2022-12-10T06:32:06;21.33;;;19.10;;
36303;SDS011;22335;49.800;8.596;2022-12-10T06:38:51;21.08;;;18.85;;
36303;SDS011;22335;49.800;8.596;2022-12-10T06:45:40;23.70;;;19.38;;
36303;SDS011;22335;49.800;8.596;2022-12-10T06:52:26;23.20;;;19.33;;
36303;SDS011;22335;49.800;8.596;2022-12-10T06:59:12;21.63;;;19.33;;
36303;SDS011;22335;49.800;8.596;2022-12-10T07:06:00;20.15;;;18.05;;
36303;SDS011;22335;49.800;8.596;2022-12-10T07:12:46;20.42;;;18.27;;
36303;SDS011;22335;49.800;8.596;2022-12-10T07:19:31;20.52;;;18.33;;
36303;SDS011;22335;49.800;8.596;2022-12-10T07:26:20;21.45;;;19.08;;
36303;SDS011;22335;49.800;8.596;2022-12-10T07:33:05;19.95;;;17.83;;
36303;SDS011;22335;49.800;8.596;2022-12-10T07:39:51;20.88;;;18.58;;
36303;SDS011;22335;49.800;8.596;2022-12-10T07:46:39;22.73;;;20.25;;
36303;SDS011;22335;49.800;8.596;2022-12-10T07:53:24;21.02;;;18.83;;
36303;SDS011;22335;49.800;8.596;2022-12-10T08:00:11;20.40;;;18.30;;
36303;SDS011;22335;49.800;8.596;2022-12-10T08:07:00;20.98;;;18.80;;
36303;SDS011;22335;49.800;8.596;2022-12-10T08:13:45;20.02;;;17.98;;
36303;SDS011;22335;49.800;8.596;2022-12-10T08:20:37;19.55;;;17.70;;
36303;SDS011;22335;49.800;8.596;2022-12-10T08:27:25;20.20;;;18.08;;
36303;SDS011;22335;49.800;8.596;2022-12-10T08:34:11;19.25;;;17.30;;
36303;SDS011;22335;49.800;8.596;2022-12-10T08:40:58;19.95;;;18.05;;
36303;SDS011;22335;49.800;8.596;2022-12-10T08:47:51;20.83;;;18.63;;
36303;SDS011;22335;49.800;8.596;2022-12-10T08:54:37;18.40;;;16.58;;
36303;SDS011;22335;49.800;8.596;2022-12-10T09:01:22;20.08;;;18.08;;
36303;SDS011;22335;49.800;8.596;2022-12-10T09:08:10;18.98;;;17.08;;
36303;SDS011;22335;49.800;8.596;2022-12-10T09:14:56;20.02;;;18.02;;
36303;SDS011;22335;49.800;8.596;2022-12-10T09:21:42;19.83;;;17.83;;
36303;SDS011;22335;49.800;8.596;2022-12-10T09:28:31;18.73;;;16.73;;
36303;SDS011;22335;49.800;8.596;2022-12-10T09:35:16;19.88;;;17.98;;
36303;SDS011;22335;49.800;8.596;2022-12-10T09:42:09;20.58;;;18.40;;
36303;SDS011;22335;49.800;8.596;2022-12-10T09:49:11;20.77;;;18.17;;
36303;SDS011;22335;49.800;8.596;2022-12-10T09:56:06;19.38;;;17.48;;
36303;SDS011;22335;49.800;8.596;2022-12-10T10:03:03;21.42;;;19.13;;
36303;SDS011;22335;49.800;8.596;2022-12-10T10:09:52;21.50;;;18.77;;
36303;SDS011;22335;49.800;8.596;2022-12-10T10:16:44;20.15;;;18.15;;
36303;SDS011;22335;49.800;8.596;2022-12-10T10:23:34;19.90;;;17.67;;
36303;SDS011;22335;49.800;8.596;2022-12-10T10:37:52;21.15;;;19.08;;
36303;SDS011;22335;49.800;8.596;2022-12-10T10:44:43;20.27;;;18.35;;
36303;SDS011;22335;49.800;8.596;2022-12-10T10:59:01;20.13;;;17.98;;
36303;SDS011;22335;49.800;8.596;2022-12-10T11:05:50;21.98;;;19.33;;
36303;SDS011;22335;49.800;8.596;2022-12-10T11:12:36;20.80;;;18.63;;
36303;SDS011;22335;49.800;8.596;2022-12-10T11:19:26;20.38;;;18.17;;
36303;SDS011;22335;49.800;8.596;2022-12-10T11:26:30;21.23;;;18.80;;
36303;SDS011;22335;49.800;8.596;2022-12-10T11:33:33;20.92;;;18.80;;
36303;SDS011;22335;49.800;8.596;2022-12-10T11:40:33;22.25;;;19.58;;
36303;SDS011;22335;49.800;8.596;2022-12-10T11:47:29;21.98;;;18.75;;
36303;SDS011;22335;49.800;8.596;2022-12-10T11:54:32;19.35;;;17.35;;
36303;SDS011;22335;49.800;8.596;2022-12-10T12:01:54;20.90;;;18.77;;
36303;SDS011;22335;49.800;8.596;2022-12-10T12:09:03;20.60;;;18.40;;
36303;SDS011;22335;49.800;8.596;2022-12-10T12:16:03;20.77;;;18.65;;
36303;SDS011;22335;49.800;8.596;2022-12-10T12:22:57;20.05;;;18.02;;
36303;SDS011;22335;49.800;8.596;2022-12-10T12:29:57;20.08;;;17.92;;
36303;SDS011;22335;49.800;8.596;2022-12-10T12:36:49;19.25;;;17.25;;
36303;SDS011;22335;49.800;8.596;2022-12-10T12:43:42;20.08;;;18.02;;
36303;SDS011;22335;49.800;8.596;2022-12-10T12:50:39;17.48;;;15.70;;
36303;SDS011;22335;49.800;8.596;2022-12-10T12:57:30;19.27;;;17.33;;
36303;SDS011;22335;49.800;8.596;2022-12-10T13:04:25;19.25;;;17.25;;
36303;SDS011;22335;49.800;8.596;2022-12-10T13:11:16;18.42;;;16.63;;
36303;SDS011;22335;49.800;8.596;2022-12-10T13:18:21;17.25;;;15.63;;
36303;SDS011;22335;49.800;8.596;2022-12-10T13:25:37;15.85;;;14.45;;
36303;SDS011;22335;49.800;8.596;2022-12-10T13:32:43;15.97;;;14.40;;
36303;SDS011;22335;49.800;8.596;2022-12-10T13:39:32;16.40;;;14.88;;
36303;SDS011;22335;49.800;8.596;2022-12-10T13:46:22;15.80;;;14.40;;
36303;SDS011;22335;49.800;8.596;2022-12-10T13:53:13;16.05;;;14.45;;
36303;SDS011;22335;49.800;8.596;2022-12-10T14:00:09;16.33;;;14.77;;
36303;SDS011;22335;49.800;8.596;2022-12-10T14:07:05;16.92;;;15.32;;
36303;SDS011;22335;49.800;8.596;2022-12-10T14:13:54;17.15;;;15.40;;
36303;SDS011;22335;49.800;8.596;2022-12-10T14:20:43;17.00;;;15.10;;
36303;SDS011;22335;49.800;8.596;2022-12-10T14:27:34;15.75;;;14.27;;
36303;SDS011;22335;49.800;8.596;2022-12-10T14:34:21;16.60;;;15.10;;
36303;SDS011;22335;49.800;8.596;2022-12-10T14:41:09;16.73;;;15.23;;
36303;SDS011;22335;49.800;8.596;2022-12-10T14:48:02;17.15;;;15.52;;
36303;SDS011;22335;49.800;8.596;2022-12-10T14:54:50;18.23;;;16.33;;
36303;SDS011;22335;49.800;8.596;2022-12-10T15:01:37;17.67;;;15.85;;
36303;SDS011;22335;49.800;8.596;2022-12-10T15:08:28;18.08;;;16.25;;
36303;SDS011;22335;49.800;8.596;2022-12-10T15:15:15;18.50;;;16.60;;
36303;SDS011;22335;49.800;8.596;2022-12-10T15:22:15;18.63;;;16.73;;
36303;SDS011;22335;49.800;8.596;2022-12-10T15:36:25;18.13;;;16.33;;
36303;SDS011;22335;49.800;8.596;2022-12-10T15:43:24;18.45;;;16.55;;
36303;SDS011;22335;49.800;8.596;2022-12-10T15:50:15;18.50;;;16.58;;
36303;SDS011;22335;49.800;8.596;2022-12-10T15:57:04;18.63;;;16.77;;
36303;SDS011;22335;49.800;8.596;2022-12-10T16:03:57;18.97;;;17.07;;
36303;SDS011;22335;49.800;8.596;2022-12-10T16:10:46;19.95;;;17.85;;
36303;SDS011;22335;49.800;8.596;2022-12-10T16:17:34;20.15;;;17.98;;
36303;SDS011;22335;49.800;8.596;2022-12-10T16:24:20;19.20;;;17.23;;
36303;SDS011;22335;49.800;8.596;2022-12-10T16:31:10;20.08;;;18.05;;
36303;SDS011;22335;49.800;8.596;2022-12-10T16:37:58;20.70;;;18.33;;
36303;SDS011;22335;49.800;8.596;2022-12-10T16:44:50;19.23;;;17.20;;
36303;SDS011;22335;49.800;8.596;2022-12-10T16:51:39;22.30;;;18.35;;
36303;SDS011;22335;49.800;8.596;2022-12-10T16:58:24;23.98;;;19.70;;
36303;SDS011;22335;49.800;8.596;2022-12-10T17:05:12;20.55;;;18.05;;
36303;SDS011;22335;49.800;8.596;2022-12-10T17:12:04;25.77;;;20.08;;
36303;SDS011;22335;49.800;8.596;2022-12-10T17:18:51;26.73;;;21.80;;
36303;SDS011;22335;49.800;8.596;2022-12-10T17:25:36;21.50;;;19.27;;
36303;SDS011;22335;49.800;8.596;2022-12-10T17:32:25;22.48;;;20.17;;
36303;SDS011;22335;49.800;8.596;2022-12-10T17:39:12;20.50;;;18.35;;
36303;SDS011;22335;49.800;8.596;2022-12-10T17:46:03;23.58;;;19.30;;
36303;SDS011;22335;49.800;8.596;2022-12-10T17:52:51;21.05;;;18.85;;
36303;SDS011;22335;49.800;8.596;2022-12-10T17:59:37;18.90;;;16.83;;
36303;SDS011;22335;49.800;8.596;2022-12-10T18:06:25;21.27;;;18.70;;
36303;SDS011;22335;49.800;8.596;2022-12-10T18:13:15;21.35;;;19.05;;
36303;SDS011;22335;49.800;8.596;2022-12-10T18:20:00;20.17;;;18.05;;
36303;SDS011;22335;49.800;8.596;2022-12-10T18:26:46;25.70;;;20.73;;
36303;SDS011;22335;49.800;8.596;2022-12-10T18:33:36;21.83;;;19.58;;
36303;SDS011;22335;49.800;8.596;2022-12-10T18:40:24;22.45;;;20.05;;
36303;SDS011;22335;49.800;8.596;2022-12-10T18:47:09;22.20;;;19.92;;
36303;SDS011;22335;49.800;8.596;2022-12-10T18:53:58;23.17;;;20.83;;
36303;SDS011;22335;49.800;8.596;2022-12-10T19:00:44;24.23;;;21.25;;
36303;SDS011;22335;49.800;8.596;2022-12-10T19:07:29;22.15;;;19.85;;
36303;SDS011;22335;49.800;8.596;2022-12-10T19:14:17;22.25;;;19.20;;
36303;SDS011;22335;49.800;8.596;2022-12-10T19:21:04;21.77;;;19.48;;
36303;SDS011;22335;49.800;8.596;2022-12-10T19:27:49;23.10;;;20.60;;
36303;SDS011;22335;49.800;8.596;2022-12-10T19:34:37;23.73;;;21.23;;
36303;SDS011;22335;49.800;8.596;2022-12-10T19:41:23;21.40;;;19.27;;
36303;SDS011;22335;49.800;8.596;2022-12-10T19:48:09;21.00;;;18.80;;
36303;SDS011;22335;49.800;8.596;2022-12-10T19:54:57;22.13;;;19.73;;
36303;SDS011;22335;49.800;8.596;2022-12-10T20:01:45;21.15;;;18.88;;
36303;SDS011;22335;49.800;8.596;2022-12-10T20:08:31;25.63;;;21.17;;
36303;SDS011;22335;49.800;8.596;2022-12-10T20:15:21;22.73;;;20.33;;
36303;SDS011;22335;49.800;8.596;2022-12-10T20:22:08;20.70;;;18.50;;
36303;SDS011;22335;49.800;8.596;2022-12-10T20:28:53;24.77;;;21.85;;
36303;SDS011;22335;49.800;8.596;2022-12-10T20:35:42;25.77;;;22.13;;
36303;SDS011;22335;49.800;8.596;2022-12-10T20:42:28;26.05;;;21.63;;
36303;SDS011;22335;49.800;8.596;2022-12-10T20:49:14;23.80;;;20.90;;
36303;SDS011;22335;49.800;8.596;2022-12-10T20:56:05;25.55;;;20.00;;
36303;SDS011;22335;49.800;8.596;2022-12-10T21:02:53;23.45;;;20.95;;
36303;SDS011;22335;49.800;8.596;2022-12-10T21:09:38;25.60;;;22.10;;
36303;SDS011;22335;49.800;8.596;2022-12-10T21:16:26;25.40;;;22.48;;
36303;SDS011;22335;49.800;8.596;2022-12-10T21:23:17;28.20;;;23.83;;
36303;SDS011;22335;49.800;8.596;2022-12-10T21:30:06;25.88;;;22.90;;
36303;SDS011;22335;49.800;8.596;2022-12-10T21:36:58;25.58;;;22.20;;
36303;SDS011;22335;49.800;8.596;2022-12-10T21:43:44;26.33;;;22.30;;
36303;SDS011;22335;49.800;8.596;2022-12-10T21:50:29;26.35;;;22.67;;
36303;SDS011;22335;49.800;8.596;2022-12-10T21:57:18;27.83;;;23.70;;
36303;SDS011;22335;49.800;8.596;2022-12-10T22:04:03;30.17;;;23.80;;
36303;SDS011;22335;49.800;8.596;2022-12-10T22:10:54;26.98;;;23.85;;
36303;SDS011;22335;49.800;8.596;2022-12-10T22:17:42;25.50;;;22.80;;
36303;SDS011;22335;49.800;8.596;2022-12-10T22:24:28;24.30;;;21.80;;
36303;SDS011;22335;49.800;8.596;2022-12-10T22:31:14;24.38;;;21.92;;
36303;SDS011;22335;49.800;8.596;2022-12-10T22:38:03;24.58;;;21.83;;
36303;SDS011;22335;49.800;8.596;2022-12-10T22:44:49;25.55;;;22.85;;
36303;SDS011;22335;49.800;8.596;2022-12-10T22:51:34;26.67;;;23.20;;
36303;SDS011;22335;49.800;8.596;2022-12-10T22:58:22;29.00;;;24.40;;
36303;SDS011;22335;49.800;8.596;2022-12-10T23:05:08;29.10;;;23.73;;
36303;SDS011;22335;49.800;8.596;2022-12-10T23:11:53;32.28;;;25.33;;
36303;SDS011;22335;49.800;8.596;2022-12-10T23:18:54;32.88;;;27.55;;
36303;SDS011;22335;49.800;8.596;2022-12-10T23:25:39;31.70;;;26.88;;
36303;SDS011;22335;49.800;8.596;2022-12-10T23:32:27;32.42;;;27.08;;
36303;SDS011;22335;49.800;8.596;2022-12-10T23:39:15;38.13;;;28.48;;
36303;SDS011;22335;49.800;8.596;2022-12-10T23:46:01;35.60;;;26.35;;
36303;SDS011;22335;49.800;8.596;2022-12-10T23:52:50;32.95;;;26.83;;
36303;SDS011;22335;49.800;8.596;2022-12-10T23:59:38;34.67;;;27.10;;
